Time;durP1;ratioP1;P1;durP2;ratioP2;P2;SDS_P1;SDS_P2;PMS_P1;PMS_P2;Temp;Humidity;BMP_temperature;BMP_pressure;BME280_temperature;BME280_humidity;BME280_pressure;Samples;Min_cycle;Max_cycle;Signal;HPM_P1;HPM_P2
2021/03/29 00:02:04;;;;;;;9.47;3.20;;;5.00;99.90;;;5.92;100.00;99461.75;5050865;28;20443;-79
2021/03/29 00:04:32;;;;;;;5.13;2.47;;;5.00;99.90;;;5.92;100.00;99456.56;5048361;28;20835;-79
2021/03/29 00:07:03;;;;;;;5.80;2.47;;;5.00;99.90;;;5.87;100.00;99461.28;5050999;28;20485;-79
2021/03/29 00:09:34;;;;;;;3.10;2.10;;;4.90;99.90;;;5.89;100.00;99462.00;5051794;28;20445;-79
2021/03/29 00:12:05;;;;;;;9.00;2.83;;;5.00;99.90;;;5.82;100.00;99466.00;5050845;28;20907;-79
2021/03/29 00:14:35;;;;;;;10.57;3.40;;;4.80;99.90;;;5.87;100.00;99466.47;5042140;28;20450;-79
2021/03/29 00:17:04;;;;;;;4.23;2.90;;;4.90;99.90;;;5.86;100.00;99467.44;5050169;28;20456;-79
2021/03/29 00:19:34;;;;;;;4.80;2.20;;;4.90;99.90;;;5.82;100.00;99461.63;5044519;28;20453;-79
2021/03/29 00:22:03;;;;;;;14.43;2.50;;;4.90;99.90;;;5.84;100.00;99458.91;5051568;28;20511;-79
2021/03/29 00:24:32;;;;;;;6.73;2.83;;;4.90;99.90;;;5.81;100.00;99459.13;5051847;28;20492;-79
2021/03/29 00:27:00;;;;;;;8.60;3.60;;;4.90;99.90;;;5.80;100.00;99460.09;5051608;28;21004;-79
2021/03/29 00:29:28;;;;;;;8.87;3.00;;;4.80;99.90;;;5.79;100.00;99463.66;5050192;28;20446;-79
2021/03/29 00:31:58;;;;;;;7.37;2.47;;;4.80;99.90;;;5.79;100.00;99455.84;5046599;28;20438;-79
2021/03/29 00:34:26;;;;;;;10.90;3.37;;;4.80;99.90;;;5.75;100.00;99459.63;5052939;28;20445;-79
2021/03/29 00:36:55;;;;;;;8.60;3.07;;;4.70;99.90;;;5.72;100.00;99460.72;5051908;28;20499;-79
2021/03/29 00:39:25;;;;;;;6.73;2.50;;;4.80;99.90;;;5.68;100.00;99448.09;5053896;28;20449;-79
2021/03/29 00:41:53;;;;;;;5.47;2.63;;;4.70;99.90;;;5.71;100.00;99453.03;5047684;28;20465;-79
2021/03/29 00:44:22;;;;;;;11.47;3.00;;;4.80;99.90;;;5.70;100.00;99448.78;5051292;28;20448;-79
2021/03/29 00:46:51;;;;;;;10.27;3.70;;;4.80;99.90;;;5.71;100.00;99459.06;5049894;28;20481;-79
2021/03/29 00:49:22;;;;;;;22.47;3.43;;;4.80;99.90;;;5.69;100.00;99453.19;5048060;28;20448;-79
2021/03/29 00:51:51;;;;;;;7.17;2.30;;;4.80;99.90;;;5.62;100.00;99458.97;5033205;28;20457;-80
2021/03/29 00:54:19;;;;;;;5.13;2.63;;;4.60;99.90;;;5.65;100.00;99458.72;5044878;28;20581;-79
2021/03/29 00:56:48;;;;;;;8.37;2.70;;;4.80;99.90;;;5.59;100.00;99460.00;5041947;28;20460;-79
2021/03/29 00:59:17;;;;;;;10.30;2.97;;;4.70;99.90;;;5.55;100.00;99461.22;5049126;28;20487;-79
2021/03/29 01:01:49;;;;;;;6.60;2.30;;;4.60;99.90;;;5.55;100.00;99458.63;5050969;28;20441;-79
2021/03/29 01:04:18;;;;;;;8.53;2.30;;;4.60;99.90;;;5.61;100.00;99457.31;5045741;28;20956;-79
2021/03/29 01:06:50;;;;;;;8.27;2.30;;;4.70;99.90;;;5.57;100.00;99452.38;5047085;28;20905;-80
2021/03/29 01:09:22;;;;;;;3.70;2.40;;;4.70;99.90;;;5.49;100.00;99459.91;5053454;28;20784;-79
2021/03/29 01:11:57;;;;;;;9.40;1.87;;;4.50;99.90;;;5.47;100.00;99459.22;5045380;28;20449;-79
2021/03/29 01:14:29;;;;;;;7.93;3.10;;;4.60;99.90;;;5.37;100.00;99460.06;5050011;28;20464;-79
2021/03/29 01:17:05;;;;;;;5.57;2.77;;;4.40;99.90;;;5.34;100.00;99453.34;5049810;28;20697;-79
2021/03/29 01:19:59;;;;;;;7.87;2.37;;;4.50;99.90;;;5.33;100.00;99450.84;5041855;28;20436;-79
2021/03/29 01:22:32;;;;;;;5.10;2.30;;;4.40;99.90;;;5.30;100.00;99458.88;5049059;28;20439;-79
2021/03/29 01:25:09;;;;;;;9.77;2.70;;;4.40;99.90;;;5.27;100.00;99459.94;5049752;28;20453;-79
2021/03/29 01:27:44;;;;;;;12.63;2.47;;;4.40;99.90;;;5.28;100.00;99463.34;5050395;28;20473;-79
2021/03/29 01:30:15;;;;;;;7.17;2.13;;;4.40;99.90;;;5.23;100.00;99460.28;5045695;28;20709;-79
2021/03/29 01:32:46;;;;;;;6.47;2.23;;;4.30;99.90;;;5.20;100.00;99463.13;5049749;28;20506;-79
2021/03/29 01:35:18;;;;;;;8.83;2.57;;;4.30;99.90;;;5.18;100.00;99468.41;5049115;28;20949;-79
2021/03/29 01:37:49;;;;;;;10.13;2.60;;;4.20;99.90;;;5.19;100.00;99467.47;5043560;28;20441;-79
2021/03/29 01:40:20;;;;;;;7.57;2.30;;;4.20;99.90;;;5.08;100.00;99463.13;5042212;28;20481;-79
2021/03/29 01:42:50;;;;;;;6.83;2.93;;;4.10;99.90;;;5.07;100.00;99455.44;5048139;28;20448;-80
2021/03/29 01:45:20;;;;;;;8.10;2.50;;;4.10;99.90;;;5.10;100.00;99464.78;5047571;28;20449;-79
2021/03/29 01:47:49;;;;;;;7.10;2.20;;;4.10;99.90;;;5.04;100.00;99463.47;5048692;28;20491;-79
2021/03/29 01:50:25;;;;;;;7.47;2.70;;;4.10;99.90;;;5.04;100.00;99463.47;5043284;28;20812;-79
2021/03/29 01:52:55;;;;;;;5.60;2.30;;;4.10;99.90;;;5.06;100.00;99464.19;5052828;28;20432;-79
2021/03/29 01:55:24;;;;;;;14.13;3.23;;;4.10;99.90;;;5.05;100.00;99465.94;5050429;28;20465;-79
2021/03/29 01:57:53;;;;;;;6.33;2.50;;;4.10;99.90;;;5.03;100.00;99467.03;5043064;28;20461;-79
2021/03/29 02:00:27;;;;;;;6.13;2.37;;;4.10;99.90;;;4.99;100.00;99468.19;5043976;28;20481;-79
2021/03/29 02:02:55;;;;;;;10.83;2.70;;;4.00;99.90;;;5.04;100.00;99463.47;5039161;28;20934;-79
2021/03/29 02:05:23;;;;;;;10.53;2.30;;;4.10;99.90;;;5.06;100.00;99471.97;5042999;28;20446;-79
2021/03/29 02:07:52;;;;;;;10.23;2.57;;;4.10;99.90;;;5.04;100.00;99468.66;5053555;28;20546;-79
2021/03/29 02:10:24;;;;;;;5.90;2.90;;;4.10;99.90;;;5.00;100.00;99472.41;5050561;28;20433;-79
2021/03/29 02:12:55;;;;;;;8.10;2.60;;;4.00;99.90;;;4.95;100.00;99469.34;5051416;28;20460;-79
2021/03/29 02:15:25;;;;;;;4.03;2.60;;;4.00;99.90;;;4.97;100.00;99468.28;5047443;28;20436;-79
2021/03/29 02:17:55;;;;;;;4.77;2.53;;;4.00;99.90;;;5.04;100.00;99471.22;5052168;28;20487;-79
2021/03/29 02:20:28;;;;;;;3.20;2.30;;;4.20;99.90;;;5.01;100.00;99468.88;5050065;28;20440;-79
2021/03/29 02:22:56;;;;;;;7.73;2.83;;;4.10;99.90;;;4.98;100.00;99471.72;5049893;28;20445;-79
2021/03/29 02:25:28;;;;;;;6.03;2.50;;;4.10;99.90;;;5.02;100.00;99458.41;5049539;28;20440;-79
2021/03/29 02:28:00;;;;;;;9.70;3.10;;;4.10;99.90;;;4.96;100.00;99465.84;5046155;28;20489;-79
2021/03/29 02:30:35;;;;;;;4.73;2.00;;;4.10;99.90;;;4.99;100.00;99465.59;5042888;28;20460;-79
2021/03/29 02:33:05;;;;;;;11.90;3.90;;;4.20;99.90;;;4.90;100.00;99472.28;5053271;28;20503;-79
2021/03/29 02:35:34;;;;;;;3.60;2.50;;;4.00;99.90;;;4.92;100.00;99464.41;5052494;28;20445;-79
2021/03/29 02:38:05;;;;;;;10.13;2.83;;;4.00;99.90;;;5.00;100.00;99462.88;5053332;28;20990;-80
2021/03/29 02:40:33;;;;;;;8.23;2.57;;;4.10;99.90;;;5.05;100.00;99465.13;5050969;28;20487;-79
2021/03/29 02:43:04;;;;;;;6.50;2.80;;;4.20;99.90;;;5.05;100.00;99459.94;5051255;28;20620;-80
2021/03/29 02:45:37;;;;;;;4.13;2.07;;;4.20;99.90;;;5.00;100.00;99464.63;5040775;28;20449;-79
2021/03/29 02:48:09;;;;;;;6.40;2.97;;;4.10;99.90;;;4.95;100.00;99461.59;5046466;28;20528;-80
2021/03/29 02:50:40;;;;;;;4.37;2.70;;;4.00;99.90;;;4.92;100.00;99462.66;5050621;28;20506;-79
2021/03/29 02:53:13;;;;;;;9.60;2.70;;;4.00;99.90;;;4.96;100.00;99455.47;5047263;28;20549;-79
2021/03/29 02:55:43;;;;;;;5.67;3.17;;;4.10;99.90;;;4.99;100.00;99460.41;5052530;28;20448;-79
2021/03/29 02:58:16;;;;;;;5.73;2.43;;;4.20;99.90;;;5.00;100.00;99457.69;5050878;28;20445;-79
2021/03/29 03:00:44;;;;;;;6.93;2.17;;;4.20;99.90;;;4.95;100.00;99470.19;5046440;28;20536;-79
2021/03/29 03:03:14;;;;;;;5.70;2.70;;;4.10;99.90;;;4.95;100.00;99464.16;5048105;28;20457;-79
2021/03/29 03:05:44;;;;;;;20.53;2.60;;;4.10;99.90;;;4.91;100.00;99454.97;5047969;28;20440;-79
2021/03/29 03:08:12;;;;;;;6.23;2.50;;;4.00;99.90;;;4.91;100.00;99457.56;5048696;28;20913;-79
2021/03/29 03:10:41;;;;;;;10.20;3.30;;;4.00;99.90;;;4.88;100.00;99458.63;5051717;28;20444;-79
2021/03/29 03:13:12;;;;;;;6.87;3.37;;;4.00;99.90;;;4.82;100.00;99450.50;5043836;28;20558;-79
2021/03/29 03:15:41;;;;;;;9.23;2.63;;;3.90;99.90;;;4.78;100.00;99460.28;5054672;28;20449;-79
2021/03/29 03:18:10;;;;;;;4.60;2.60;;;3.80;99.90;;;4.84;100.00;99459.81;5053748;28;20690;-79
2021/03/29 03:20:40;;;;;;;11.90;2.37;;;3.90;99.90;;;4.88;100.00;99458.63;5050998;28;20880;-79
2021/03/29 03:23:15;;;;;;;12.97;2.47;;;4.00;99.90;;;4.95;100.00;99459.00;5051731;28;20925;-79
2021/03/29 03:25:46;;;;;;;12.13;2.50;;;4.10;99.90;;;4.97;100.00;99454.50;5054158;28;20971;-79
2021/03/29 03:28:17;;;;;;;6.00;1.87;;;4.10;99.90;;;4.88;100.00;99457.81;5055150;28;20908;-79
2021/03/29 03:30:48;;;;;;;6.97;2.73;;;4.00;99.90;;;4.91;100.00;99460.16;5047438;28;20505;-79
2021/03/29 03:33:19;;;;;;;2.93;2.20;;;4.00;99.90;;;4.84;100.00;99456.38;5052062;28;20872;-79
2021/03/29 03:35:51;;;;;;;4.73;2.60;;;4.00;99.90;;;4.83;100.00;99459.91;5053207;28;20921;-79
2021/03/29 03:38:23;;;;;;;5.20;2.50;;;3.90;99.90;;;4.80;100.00;99457.53;5049254;28;20445;-79
2021/03/29 03:40:55;;;;;;;5.57;2.73;;;3.90;99.90;;;4.79;100.00;99455.91;5053160;28;20449;-79
2021/03/29 03:43:27;;;;;;;7.57;3.10;;;3.90;99.90;;;4.81;100.00;99461.78;5044805;28;20456;-79
2021/03/29 03:46:02;;;;;;;5.07;2.23;;;3.90;99.90;;;4.78;100.00;99456.84;5052423;28;20450;-79
2021/03/29 03:48:31;;;;;;;7.20;2.70;;;3.90;99.90;;;4.70;100.00;99456.59;5050197;28;21396;-79
2021/03/29 03:51:00;;;;;;;3.90;2.70;;;3.80;99.90;;;4.65;100.00;99450.94;5055057;28;20491;-79
2021/03/29 03:53:29;;;;;;;5.70;2.13;;;3.80;99.90;;;4.71;100.00;99453.06;5052455;28;20469;-79
2021/03/29 03:55:59;;;;;;;12.90;2.53;;;3.80;99.90;;;4.72;100.00;99460.72;5051600;28;20445;-80
2021/03/29 03:58:30;;;;;;;5.80;2.40;;;3.80;99.90;;;4.62;100.00;99451.97;5051744;28;20796;-79
2021/03/29 04:00:59;;;;;;;6.97;1.93;;;3.70;99.90;;;4.56;100.00;99450.69;5052717;28;20849;-79
2021/03/29 04:03:29;;;;;;;7.07;3.03;;;3.60;99.90;;;4.55;100.00;99455.97;5052238;28;20452;-79
2021/03/29 04:05:58;;;;;;;11.73;2.50;;;3.60;99.90;;;4.57;100.00;99454.94;5050057;28;20451;-79
2021/03/29 04:08:45;;;;;;;10.73;2.67;;;3.70;99.90;;;4.54;100.00;99456.94;5052735;28;20485;-79
2021/03/29 04:11:13;;;;;;;3.90;2.63;;;3.60;99.90;;;4.54;100.00;99460.34;5049437;28;20449;-79
2021/03/29 04:13:41;;;;;;;5.23;2.70;;;3.60;99.90;;;4.51;100.00;99463.13;5051560;28;20457;-79
2021/03/29 04:16:09;;;;;;;7.30;2.37;;;3.60;99.90;;;4.44;100.00;99461.94;5050813;28;20491;-79
2021/03/29 04:18:36;;;;;;;5.40;2.60;;;3.50;99.90;;;4.49;100.00;99464.19;5053456;28;20445;-79
2021/03/29 04:21:06;;;;;;;4.13;2.43;;;3.50;99.90;;;4.46;100.00;99474.78;5050522;28;20441;-79
2021/03/29 04:23:34;;;;;;;10.23;2.70;;;3.50;99.90;;;4.50;100.00;99474.47;5050964;28;20437;-79
2021/03/29 04:26:05;;;;;;;7.40;2.60;;;3.60;99.90;;;4.46;100.00;99473.03;5042977;28;20478;-79
2021/03/29 04:28:32;;;;;;;4.23;2.33;;;3.60;99.90;;;4.41;100.00;99480.28;5052088;28;20500;-79
2021/03/29 04:31:01;;;;;;;4.80;2.13;;;3.50;99.90;;;4.38;100.00;99483.13;5047902;28;20799;-79
2021/03/29 04:33:29;;;;;;;6.30;2.13;;;3.40;99.90;;;4.37;100.00;99483.25;5050694;28;20433;-79
2021/03/29 04:35:56;;;;;;;6.73;2.30;;;3.40;99.90;;;4.33;100.00;99477.47;5050867;28;20438;-79
2021/03/29 04:38:24;;;;;;;6.37;2.43;;;3.40;99.90;;;4.32;100.00;99474.97;5051536;28;20976;-79
2021/03/29 04:40:52;;;;;;;4.97;2.17;;;3.40;99.90;;;4.26;100.00;99478.84;5050934;28;20469;-79
2021/03/29 04:43:19;;;;;;;7.73;2.40;;;3.30;99.90;;;4.29;100.00;99478.63;5051128;28;20944;-79
2021/03/29 04:45:47;;;;;;;7.93;2.30;;;3.30;99.90;;;4.32;100.00;99483.56;5050721;28;20958;-79
2021/03/29 04:48:16;;;;;;;5.07;2.20;;;3.40;99.90;;;4.30;100.00;99482.88;5049350;28;20500;-79
2021/03/29 04:50:43;;;;;;;7.03;2.20;;;3.40;99.90;;;4.25;100.00;99484.97;5050395;28;20445;-79
2021/03/29 04:53:11;;;;;;;7.77;2.50;;;3.30;99.90;;;4.24;100.00;99498.00;5050195;28;20445;-80
2021/03/29 04:55:38;;;;;;;11.23;2.70;;;3.30;99.90;;;4.28;100.00;99489.06;5048715;28;20910;-79
2021/03/29 04:58:06;;;;;;;9.53;2.70;;;3.30;99.90;;;4.25;100.00;99494.47;5051354;28;20457;-79
2021/03/29 05:00:34;;;;;;;6.30;2.63;;;3.30;99.90;;;4.19;100.00;99498.34;5052907;28;20487;-79
2021/03/29 05:03:01;;;;;;;24.47;2.83;;;3.30;99.90;;;4.13;100.00;99501.34;5050537;28;20452;-79
2021/03/29 05:05:30;;;;;;;9.77;3.07;;;3.20;99.90;;;4.17;100.00;99507.13;5038685;28;20487;-79
2021/03/29 05:07:57;;;;;;;4.60;2.27;;;3.30;99.90;;;4.13;100.00;99510.91;5045022;28;20715;-79
2021/03/29 05:10:25;;;;;;;7.93;2.97;;;3.20;99.90;;;4.15;100.00;99512.44;5050798;28;20457;-79
2021/03/29 05:12:55;;;;;;;5.30;2.80;;;3.20;99.90;;;4.08;100.00;99524.16;5049479;28;20467;-81
2021/03/29 05:15:24;;;;;;;6.53;2.60;;;3.10;99.90;;;4.09;100.00;99525.84;5049316;28;20449;-79
2021/03/29 05:17:51;;;;;;;15.23;3.43;;;3.20;99.90;;;4.11;100.00;99521.34;5051133;28;20532;-79
2021/03/29 05:20:19;;;;;;;8.13;3.67;;;3.20;99.90;;;4.11;100.00;99523.94;5048999;28;21223;-79
2021/03/29 05:22:47;;;;;;;6.50;2.67;;;3.20;99.90;;;4.06;100.00;99523.47;5040706;28;20515;-79
2021/03/29 05:25:15;;;;;;;8.97;3.50;;;3.20;99.90;;;4.06;100.00;99526.06;5050906;28;20667;-79
2021/03/29 05:27:43;;;;;;;15.30;3.20;;;3.20;99.90;;;4.07;100.00;99525.94;5049040;28;20493;-79
2021/03/29 05:30:11;;;;;;;9.07;3.20;;;3.20;99.90;;;4.02;100.00;99527.22;5044245;28;20969;-79
2021/03/29 05:32:39;;;;;;;15.77;3.57;;;3.10;99.90;;;4.05;100.00;99530.41;5044654;28;20476;-79
2021/03/29 05:35:09;;;;;;;9.10;2.73;;;3.10;99.90;;;4.08;100.00;99529.34;5048966;28;20809;-79
2021/03/29 05:37:36;;;;;;;8.97;3.30;;;3.10;99.90;;;4.05;100.00;99530.41;5043466;28;20434;-79
2021/03/29 05:40:07;;;;;;;9.10;2.80;;;3.10;99.90;;;4.07;100.00;99532.88;5046898;28;20476;-79
2021/03/29 05:42:35;;;;;;;10.23;2.83;;;3.20;99.90;;;4.10;100.00;99534.41;5049129;28;20445;-79
2021/03/29 05:45:08;;;;;;;3.93;2.30;;;3.20;99.90;;;4.07;100.00;99538.03;5049458;28;20846;-79
2021/03/29 05:47:37;;;;;;;8.40;3.30;;;3.20;99.90;;;4.06;100.00;99541.59;5048058;28;20488;-79
2021/03/29 05:50:08;;;;;;;9.97;2.83;;;3.20;99.90;;;4.08;100.00;99547.47;5049406;28;20999;-79
2021/03/29 05:52:36;;;;;;;14.27;3.30;;;3.20;99.90;;;4.13;100.00;99547.94;5050724;28;20503;-79
2021/03/29 05:55:10;;;;;;;10.33;2.80;;;3.30;99.90;;;4.15;100.00;99546.09;5047007;28;20464;-79
2021/03/29 05:57:42;;;;;;;8.27;2.77;;;3.30;99.90;;;4.10;100.00;99553.34;5050115;28;20472;-79
2021/03/29 06:00:43;;;;;;;4.60;2.50;;;3.20;99.90;;;4.12;100.00;99545.47;5048922;28;20485;-79
2021/03/29 06:03:23;;;;;;;7.30;3.60;;;3.20;99.90;;;4.09;100.00;99556.88;4980483;28;20566;-79
2021/03/29 06:05:58;;;;;;;5.67;3.00;;;3.20;99.90;;;4.07;100.00;99556.16;4984722;28;20898;-79
2021/03/29 06:08:28;;;;;;;12.70;3.80;;;3.10;99.90;;;4.12;100.00;99567.03;5024017;28;20489;-79
2021/03/29 06:11:00;;;;;;;8.03;3.13;;;3.20;99.90;;;4.16;100.00;99558.09;5039710;28;20464;-79
2021/03/29 06:13:31;;;;;;;9.47;3.27;;;3.20;99.90;;;4.18;100.00;99555.41;5045763;28;20468;-79
2021/03/29 06:16:07;;;;;;;49.43;19.60;;;3.20;99.90;;;4.22;100.00;99551.66;5045766;28;20464;-83
2021/03/29 06:18:37;;;;;;;9.63;3.83;;;3.30;99.90;;;4.21;100.00;99556.00;5046113;28;20464;-79
2021/03/29 06:21:11;;;;;;;5.80;3.10;;;3.30;99.90;;;4.24;100.00;99555.78;5035784;28;20448;-79
2021/03/29 06:23:41;;;;;;;12.47;3.93;;;3.30;99.90;;;4.22;100.00;99565.44;5046194;28;20467;-79
2021/03/29 06:26:23;;;;;;;7.63;4.03;;;3.30;99.90;;;4.21;100.00;99556.00;5049285;28;20457;-79
2021/03/29 06:28:52;;;;;;;8.10;3.47;;;3.30;99.90;;;4.30;100.00;99555.38;5033615;28;20891;-79
2021/03/29 06:31:32;;;;;;;5.60;2.77;;;3.40;99.90;;;4.34;100.00;99558.56;5043706;28;20824;-79
2021/03/29 06:34:02;;;;;;;3.33;2.30;;;3.40;99.90;;;4.37;100.00;99556.53;5047115;28;20495;-79
2021/03/29 06:36:35;;;;;;;8.30;2.97;;;3.40;99.90;;;4.34;100.00;99566.31;5051649;28;20449;-79
2021/03/29 06:39:17;;;;;;;4.10;2.87;;;3.40;99.90;;;4.36;100.00;99565.28;5042481;28;20461;-79
2021/03/29 06:41:57;;;;;;;5.13;2.73;;;3.40;99.90;;;4.44;100.00;99568.13;5043234;28;20488;-79
2021/03/29 06:44:27;;;;;;;7.67;2.70;;;3.50;99.90;;;4.48;100.00;99571.31;5038921;28;20449;-78
2021/03/29 06:47:10;;;;;;;7.20;3.27;;;3.50;99.90;;;4.55;100.00;99570.75;5037522;28;20534;-79
2021/03/29 06:49:45;;;;;;;6.00;3.53;;;3.70;99.90;;;4.60;100.00;99567.00;5048533;28;20488;-80
2021/03/29 06:52:28;;;;;;;6.20;3.90;;;3.70;99.90;;;4.67;100.00;99569.06;5050155;28;20461;-79
2021/03/29 06:55:17;;;;;;;9.50;2.93;;;3.80;99.90;;;4.72;100.00;99559.16;5053817;28;20555;-78
2021/03/29 06:57:57;;;;;;;6.93;2.57;;;3.90;99.90;;;4.83;100.00;99571.31;5061565;28;20523;-79
2021/03/29 07:00:30;;;;;;;4.40;3.00;;;4.00;99.90;;;4.86;100.00;99563.34;5061978;28;20480;-79
2021/03/29 07:03:04;;;;;;;5.67;2.80;;;4.00;99.90;;;4.92;100.00;99562.88;5043789;28;20443;-79
2021/03/29 07:05:34;;;;;;;7.00;2.43;;;4.00;99.90;;;4.98;100.00;99565.03;5054090;28;20449;-78
2021/03/29 07:08:05;;;;;;;5.93;2.43;;;4.10;99.90;;;5.05;100.00;99568.81;5057254;28;20497;-80
2021/03/29 07:10:33;;;;;;;4.10;2.43;;;4.20;99.90;;;5.10;100.00;99571.91;5059879;28;20440;-79
2021/03/29 07:13:03;;;;;;;10.93;3.20;;;4.20;99.90;;;5.19;100.00;99576.38;5044804;28;20453;-79
2021/03/29 07:15:32;;;;;;;7.30;3.90;;;4.30;99.90;;;5.26;100.00;99581.94;5060986;28;20451;-79
2021/03/29 07:18:01;;;;;;;4.27;2.67;;;4.40;99.90;;;5.34;100.00;99574.41;5053584;28;20707;-79
2021/03/29 07:20:32;;;;;;;6.80;2.60;;;4.50;99.90;;;5.39;100.00;99572.28;5045419;28;20457;-79
2021/03/29 07:22:59;;;;;;;12.23;4.63;;;4.50;99.90;;;5.47;100.00;99572.53;5055585;28;20855;-79
2021/03/29 07:25:35;;;;;;;8.03;2.70;;;4.60;99.90;;;5.52;100.00;99573.81;5049134;28;20460;-79
2021/03/29 07:28:12;;;;;;;6.80;2.87;;;4.70;99.90;;;5.59;100.00;99574.16;5051945;28;20529;-79
2021/03/29 07:30:46;;;;;;;11.10;2.87;;;4.70;99.90;;;5.69;100.00;99579.50;5040840;28;20452;-79
2021/03/29 07:33:16;;;;;;;5.50;2.73;;;4.80;99.90;;;5.76;100.00;99585.88;5049746;28;20432;-79
2021/03/29 07:35:50;;;;;;;9.67;3.23;;;4.90;99.90;;;5.84;100.00;99578.28;5051286;28;20600;-79
2021/03/29 07:38:19;;;;;;;7.60;3.33;;;5.00;99.90;;;5.90;100.00;99577.88;5055174;28;20443;-79
2021/03/29 07:40:50;;;;;;;14.40;2.80;;;5.10;99.90;;;5.97;100.00;99585.03;5040757;28;20442;-79
2021/03/29 07:43:21;;;;;;;9.97;2.97;;;5.30;99.90;;;6.06;100.00;99586.09;5043644;28;20591;-79
2021/03/29 07:45:53;;;;;;;8.77;3.43;;;5.40;99.90;;;6.16;100.00;99583.59;5051833;28;20952;-79
2021/03/29 07:48:39;;;;;;;21.17;8.03;;;5.50;99.90;;;6.24;100.00;99587.25;5055705;28;20492;-79
2021/03/29 07:51:12;;;;;;;7.00;4.43;;;5.60;99.90;;;6.32;100.00;99584.84;5055876;28;20471;-80
2021/03/29 07:53:50;;;;;;;8.43;3.20;;;5.70;99.90;;;6.42;100.00;99580.56;5053369;28;20480;-79
2021/03/29 07:56:44;;;;;;;6.00;2.50;;;5.80;99.90;;;6.53;100.00;99577.94;5054100;28;20493;-79
2021/03/29 07:59:15;;;;;;;7.50;3.03;;;5.90;99.90;;;6.64;100.00;99571.03;5058807;28;20645;-79
2021/03/29 08:02:00;;;;;;;5.80;2.30;;;6.10;99.90;;;6.91;100.00;99577.41;5054272;28;20444;-79
2021/03/29 08:05:06;;;;;;;12.83;2.40;;;6.30;99.90;;;7.11;100.00;99578.41;5049954;28;20439;-79
2021/03/29 08:07:40;;;;;;;5.03;2.00;;;6.50;99.90;;;7.21;100.00;99578.44;5055406;28;20433;-79
2021/03/29 08:10:11;;;;;;;7.67;2.40;;;6.70;99.90;;;7.50;100.00;99575.03;5046733;28;20476;-79
2021/03/29 08:12:57;;;;;;;6.43;2.23;;;6.90;99.90;;;7.76;100.00;99575.44;5047009;28;20545;-79
2021/03/29 08:16:02;;;;;;;11.43;2.87;;;7.20;99.90;;;7.93;100.00;99576.59;5047104;28;20460;-79
2021/03/29 08:18:30;;;;;;;34.20;14.90;;;7.30;99.90;;;8.14;100.00;99585.16;5051837;28;20469;-81
2021/03/29 08:20:58;;;;;;;16.97;4.47;;;7.60;99.90;;;8.31;100.00;99576.72;5044760;28;20462;-79
2021/03/29 08:23:39;;;;;;;15.10;2.90;;;7.70;99.90;;;8.53;100.00;99581.69;5050055;28;20437;-79
2021/03/29 08:26:16;;;;;;;11.40;2.60;;;7.90;99.90;;;8.57;100.00;99583.03;5049021;28;20448;-79
2021/03/29 08:29:30;;;;;;;43.47;15.83;;;8.00;99.90;;;8.72;100.00;99580.03;5048907;28;20488;-80
2021/03/29 08:32:29;;;;;;;6.50;2.87;;;8.10;99.90;;;8.97;100.00;99579.47;5045746;28;20456;-79
2021/03/29 08:35:01;;;;;;;6.00;2.80;;;8.40;99.90;;;9.05;100.00;99574.41;5046336;28;20468;-80
2021/03/29 08:37:36;;;;;;;6.63;1.97;;;8.50;99.90;;;9.20;98.60;99575.59;5053100;28;21000;-80
2021/03/29 08:40:11;;;;;;;2.97;1.60;;;8.60;99.90;;;9.36;97.26;99575.84;5053163;28;21106;-80
2021/03/29 08:42:40;;;;;;;4.57;2.30;;;8.80;99.90;;;9.56;94.97;99581.81;5051999;28;20957;-80
2021/03/29 08:45:11;;;;;;;4.40;2.10;;;9.00;99.90;;;9.76;93.17;99577.34;5047437;28;20465;-81
2021/03/29 08:47:43;;;;;;;4.80;2.10;;;9.20;99.90;;;9.84;93.01;99580.06;5043522;28;20469;-80
2021/03/29 08:50:14;;;;;;;9.00;2.60;;;9.20;99.90;;;10.02;91.01;99571.31;5050977;28;20879;-79
2021/03/29 08:52:45;;;;;;;9.37;1.87;;;9.40;99.90;;;10.20;89.69;99573.19;5046591;28;20971;-80
2021/03/29 08:55:18;;;;;;;4.47;2.30;;;9.60;99.90;;;10.22;90.19;99569.44;5045958;28;20815;-80
2021/03/29 08:57:49;;;;;;;6.50;2.50;;;9.70;99.90;;;10.37;90.15;99569.78;5050848;28;20468;-80
2021/03/29 09:00:20;;;;;;;9.33;2.13;;;9.80;99.90;;;10.40;89.31;99572.09;5046572;28;20489;-80
2021/03/29 09:02:49;;;;;;;8.40;2.20;;;9.90;99.90;;;10.57;88.22;99576.50;5051094;28;20562;-80
2021/03/29 09:05:19;;;;;;;13.30;2.60;;;10.10;99.90;;;10.70;86.85;99576.13;5051958;28;20471;-80
2021/03/29 09:07:51;;;;;;;6.33;2.07;;;10.20;99.80;;;10.78;86.43;99576.19;5048674;28;20457;-80
2021/03/29 09:10:24;;;;;;;12.37;3.17;;;10.30;99.80;;;10.88;86.59;99582.16;5048395;28;20473;-80
2021/03/29 09:12:58;;;;;;;7.47;2.40;;;10.40;99.70;;;11.00;85.07;99581.78;5048533;28;20468;-80
2021/03/29 09:15:29;;;;;;;6.90;2.20;;;10.50;99.10;;;11.11;84.60;99584.16;5046726;28;20461;-80
2021/03/29 09:18:01;;;;;;;8.47;3.30;;;10.60;99.20;;;11.33;83.01;99582.84;5048073;28;20465;-80
2021/03/29 09:20:32;;;;;;;4.47;1.87;;;10.80;98.90;;;11.46;83.00;99577.19;5049140;28;20468;-80
2021/03/29 09:23:02;;;;;;;6.67;2.17;;;10.90;98.90;;;11.57;81.11;99569.06;5044295;28;20965;-80
2021/03/29 09:25:34;;;;;;;6.80;2.47;;;11.00;98.40;;;11.63;82.46;99567.66;5052704;28;20456;-80
2021/03/29 09:28:23;;;;;;;13.53;2.10;;;11.10;98.70;;;11.69;82.40;99575.69;5049296;28;20808;-80
2021/03/29 09:31:15;;;;;;;3.67;1.80;;;11.20;98.50;;;11.81;81.81;99578.88;5053090;28;20449;-80
2021/03/29 09:33:44;;;;;;;6.47;1.83;;;11.30;98.40;;;11.91;80.13;99574.34;5050834;28;20544;-80
2021/03/29 09:36:18;;;;;;;10.50;3.13;;;11.40;98.00;;;12.01;79.01;99572.41;5052382;28;20465;-80
2021/03/29 09:38:49;;;;;;;4.93;1.70;;;11.60;97.50;;;12.06;77.94;99576.22;5044496;28;20446;-80
2021/03/29 09:41:19;;;;;;;7.53;2.10;;;11.60;96.90;;;12.17;76.68;99572.47;5052939;28;20445;-80
2021/03/29 09:43:49;;;;;;;10.03;1.97;;;11.70;96.90;;;12.27;73.88;99567.09;5042932;28;20468;-80
2021/03/29 09:46:17;;;;;;;11.03;2.00;;;11.80;95.90;;;12.35;71.55;99567.13;5047787;28;20728;-80
2021/03/29 09:48:46;;;;;;;5.87;1.90;;;11.80;95.40;;;12.51;68.31;99564.50;5050860;28;20503;-80
2021/03/29 09:51:22;;;;;;;5.27;1.90;;;11.90;94.90;;;12.65;68.00;99568.31;5050269;28;20442;-80
2021/03/29 09:53:50;;;;;;;6.20;2.10;;;12.20;94.90;;;12.79;68.43;99567.66;5053014;28;20488;-80
2021/03/29 09:56:27;;;;;;;5.57;2.40;;;12.30;94.30;;;12.84;67.46;99565.38;5046634;28;20460;-80
2021/03/29 09:58:55;;;;;;;4.30;2.07;;;12.30;94.30;;;12.92;66.46;99575.88;5051781;28;20491;-80
2021/03/29 10:01:25;;;;;;;5.93;2.30;;;12.30;94.40;;;12.91;67.68;99582.13;5049711;28;20467;-81
2021/03/29 10:03:55;;;;;;;6.20;1.80;;;12.40;94.80;;;12.98;66.45;99577.84;5052439;28;20453;-80
2021/03/29 10:06:25;;;;;;;4.40;1.57;;;12.40;94.30;;;13.05;66.03;99584.88;5041502;28;20461;-80
2021/03/29 10:08:57;;;;;;;4.50;1.97;;;12.50;94.10;;;13.16;64.66;99581.13;5046207;28;20507;-80
2021/03/29 10:11:26;;;;;;;9.53;2.33;;;12.70;93.80;;;13.19;64.34;99591.31;5045511;28;20461;-80
2021/03/29 10:14:05;;;;;;;7.37;2.50;;;12.70;93.90;;;13.30;63.55;99582.28;5050053;28;20463;-80
2021/03/29 10:16:33;;;;;;;5.20;1.93;;;12.70;93.50;;;13.36;63.33;99582.41;5051925;28;20457;-80
2021/03/29 10:19:12;;;;;;;4.13;1.90;;;12.80;93.40;;;13.47;62.43;99582.06;5040355;28;20817;-80
2021/03/29 10:22:09;;;;;;;4.20;1.90;;;13.00;93.20;;;13.55;59.75;99592.59;5051234;28;20998;-80
2021/03/29 10:24:56;;;;;;;14.83;6.80;;;13.00;92.30;;;13.74;59.76;99590.56;5044432;28;20531;-80
2021/03/29 10:27:24;;;;;;;7.43;2.07;;;13.30;92.50;;;13.82;58.23;99580.00;5046275;28;20461;-80
2021/03/29 10:29:52;;;;;;;3.10;1.90;;;13.20;91.80;;;13.87;56.83;99581.16;5051627;28;20496;-80
2021/03/29 10:32:21;;;;;;;5.90;2.60;;;13.30;91.40;;;13.95;55.49;99575.84;5054078;28;20976;-86
2021/03/29 10:34:50;;;;;;;3.00;1.67;;;13.30;90.90;;;14.08;54.45;99578.78;5046921;28;20462;-80
2021/03/29 10:37:22;;;;;;;4.47;1.80;;;13.40;90.60;;;14.23;53.42;99575.41;5047574;28;20444;-80
2021/03/29 10:39:50;;;;;;;4.50;1.67;;;13.60;90.00;;;14.29;53.13;99580.81;5046263;28;20940;-80
2021/03/29 10:42:20;;;;;;;3.20;1.40;;;13.70;89.80;;;14.33;53.89;99574.22;5055415;28;20485;-80
2021/03/29 10:44:49;;;;;;;4.70;1.90;;;13.80;90.30;;;14.38;52.81;99579.78;5048161;28;20434;-80